sensor_id;sensor_type;location;lat;lon;timestamp;P1;durP1;ratioP1;P2;durP2;ratioP2
69754;SDS011;57023;52.218;5.158;2022-09-13T00:00:03;14.97;;;10.30;;
69754;SDS011;57023;52.218;5.158;2022-09-13T00:02:30;15.27;;;10.38;;
69754;SDS011;57023;52.218;5.158;2022-09-13T00:04:56;15.73;;;11.10;;
69754;SDS011;57023;52.218;5.158;2022-09-13T00:07:21;19.50;;;10.50;;
69754;SDS011;57023;52.218;5.158;2022-09-13T00:09:46;16.52;;;10.30;;
69754;SDS011;57023;52.218;5.158;2022-09-13T00:12:11;13.82;;;9.07;;
69754;SDS011;57023;52.218;5.158;2022-09-13T00:14:37;13.93;;;10.20;;
69754;SDS011;57023;52.218;5.158;2022-09-13T00:17:02;13.88;;;10.10;;
69754;SDS011;57023;52.218;5.158;2022-09-13T00:19:27;12.80;;;9.80;;
69754;SDS011;57023;52.218;5.158;2022-09-13T00:21:53;16.95;;;10.68;;
69754;SDS011;57023;52.218;5.158;2022-09-13T00:24:18;18.27;;;10.98;;
69754;SDS011;57023;52.218;5.158;2022-09-13T00:26:43;14.60;;;10.50;;
69754;SDS011;57023;52.218;5.158;2022-09-13T00:29:09;14.02;;;10.35;;
69754;SDS011;57023;52.218;5.158;2022-09-13T00:31:34;14.25;;;9.98;;
69754;SDS011;57023;52.218;5.158;2022-09-13T00:33:59;14.77;;;10.05;;
69754;SDS011;57023;52.218;5.158;2022-09-13T00:36:25;13.60;;;9.63;;
69754;SDS011;57023;52.218;5.158;2022-09-13T00:38:51;15.20;;;10.75;;
69754;SDS011;57023;52.218;5.158;2022-09-13T00:41:18;15.48;;;10.40;;
69754;SDS011;57023;52.218;5.158;2022-09-13T00:43:47;14.35;;;10.07;;
69754;SDS011;57023;52.218;5.158;2022-09-13T00:46:26;14.77;;;10.95;;
69754;SDS011;57023;52.218;5.158;2022-09-13T00:48:58;15.10;;;11.07;;
69754;SDS011;57023;52.218;5.158;2022-09-13T00:51:27;13.73;;;10.18;;
69754;SDS011;57023;52.218;5.158;2022-09-13T00:53:53;13.75;;;9.85;;
69754;SDS011;57023;52.218;5.158;2022-09-13T00:56:24;14.52;;;9.60;;
69754;SDS011;57023;52.218;5.158;2022-09-13T00:58:59;13.90;;;10.13;;
69754;SDS011;57023;52.218;5.158;2022-09-13T01:01:28;15.00;;;10.35;;
69754;SDS011;57023;52.218;5.158;2022-09-13T01:03:57;16.90;;;11.30;;
69754;SDS011;57023;52.218;5.158;2022-09-13T01:06:23;15.13;;;11.85;;
69754;SDS011;57023;52.218;5.158;2022-09-13T01:08:53;18.27;;;13.38;;
69754;SDS011;57023;52.218;5.158;2022-09-13T01:14:02;20.15;;;14.82;;
69754;SDS011;57023;52.218;5.158;2022-09-13T01:16:27;19.38;;;14.27;;
69754;SDS011;57023;52.218;5.158;2022-09-13T01:18:53;23.25;;;14.82;;
69754;SDS011;57023;52.218;5.158;2022-09-13T01:27:09;20.23;;;14.70;;
69754;SDS011;57023;52.218;5.158;2022-09-13T01:34:58;24.00;;;15.88;;
69754;SDS011;57023;52.218;5.158;2022-09-13T01:37:32;22.27;;;15.38;;
69754;SDS011;57023;52.218;5.158;2022-09-13T01:45:52;20.45;;;14.38;;
69754;SDS011;57023;52.218;5.158;2022-09-13T01:48:45;22.17;;;15.15;;
69754;SDS011;57023;52.218;5.158;2022-09-13T01:51:31;23.10;;;15.05;;
69754;SDS011;57023;52.218;5.158;2022-09-13T01:57:00;22.17;;;14.77;;
69754;SDS011;57023;52.218;5.158;2022-09-13T01:59:37;23.98;;;16.13;;
69754;SDS011;57023;52.218;5.158;2022-09-13T02:02:07;22.73;;;15.23;;
69754;SDS011;57023;52.218;5.158;2022-09-13T02:04:38;26.52;;;16.73;;
69754;SDS011;57023;52.218;5.158;2022-09-13T02:07:07;23.95;;;16.55;;
69754;SDS011;57023;52.218;5.158;2022-09-13T02:09:40;24.23;;;15.63;;
69754;SDS011;57023;52.218;5.158;2022-09-13T02:12:15;23.17;;;15.73;;
69754;SDS011;57023;52.218;5.158;2022-09-13T02:14:44;21.15;;;14.55;;
69754;SDS011;57023;52.218;5.158;2022-09-13T02:17:15;21.98;;;14.80;;
69754;SDS011;57023;52.218;5.158;2022-09-13T02:19:48;23.58;;;14.82;;
69754;SDS011;57023;52.218;5.158;2022-09-13T02:22:24;21.95;;;14.45;;
69754;SDS011;57023;52.218;5.158;2022-09-13T02:24:52;24.30;;;15.00;;
69754;SDS011;57023;52.218;5.158;2022-09-13T02:27:23;21.02;;;13.77;;
69754;SDS011;57023;52.218;5.158;2022-09-13T02:29:51;20.55;;;14.07;;
69754;SDS011;57023;52.218;5.158;2022-09-13T02:37:16;27.05;;;17.33;;
69754;SDS011;57023;52.218;5.158;2022-09-13T02:39:44;26.20;;;17.03;;
69754;SDS011;57023;52.218;5.158;2022-09-13T02:42:16;26.92;;;17.60;;
69754;SDS011;57023;52.218;5.158;2022-09-13T02:44:43;24.33;;;16.30;;
69754;SDS011;57023;52.218;5.158;2022-09-13T02:47:28;21.05;;;15.43;;
69754;SDS011;57023;52.218;5.158;2022-09-13T02:55:29;25.40;;;16.85;;
69754;SDS011;57023;52.218;5.158;2022-09-13T03:00:46;23.23;;;16.27;;
69754;SDS011;57023;52.218;5.158;2022-09-13T03:03:12;21.20;;;14.45;;
69754;SDS011;57023;52.218;5.158;2022-09-13T03:05:41;20.55;;;14.18;;
69754;SDS011;57023;52.218;5.158;2022-09-13T03:08:07;18.35;;;13.52;;
69754;SDS011;57023;52.218;5.158;2022-09-13T03:10:38;20.65;;;13.60;;
69754;SDS011;57023;52.218;5.158;2022-09-13T03:21:25;19.27;;;12.90;;
69754;SDS011;57023;52.218;5.158;2022-09-13T03:24:06;17.95;;;13.10;;
69754;SDS011;57023;52.218;5.158;2022-09-13T03:32:15;20.48;;;13.10;;
69754;SDS011;57023;52.218;5.158;2022-09-13T03:37:54;25.48;;;18.05;;
69754;SDS011;57023;52.218;5.158;2022-09-13T03:43:16;28.35;;;17.80;;
69754;SDS011;57023;52.218;5.158;2022-09-13T03:45:47;26.52;;;18.02;;
69754;SDS011;57023;52.218;5.158;2022-09-13T03:48:14;27.55;;;18.40;;
69754;SDS011;57023;52.218;5.158;2022-09-13T03:50:40;31.17;;;19.33;;
69754;SDS011;57023;52.218;5.158;2022-09-13T03:53:07;29.98;;;18.83;;
69754;SDS011;57023;52.218;5.158;2022-09-13T03:55:37;27.17;;;18.05;;
69754;SDS011;57023;52.218;5.158;2022-09-13T03:58:04;30.13;;;19.75;;
69754;SDS011;57023;52.218;5.158;2022-09-13T04:00:29;31.65;;;18.95;;
69754;SDS011;57023;52.218;5.158;2022-09-13T04:02:54;32.17;;;20.58;;
69754;SDS011;57023;52.218;5.158;2022-09-13T04:05:20;30.67;;;20.33;;
69754;SDS011;57023;52.218;5.158;2022-09-13T04:07:45;29.52;;;20.00;;
69754;SDS011;57023;52.218;5.158;2022-09-13T04:10:11;33.85;;;21.38;;
69754;SDS011;57023;52.218;5.158;2022-09-13T04:12:36;33.13;;;21.45;;
69754;SDS011;57023;52.218;5.158;2022-09-13T04:15:02;34.95;;;21.75;;
69754;SDS011;57023;52.218;5.158;2022-09-13T04:17:28;34.78;;;22.42;;
69754;SDS011;57023;52.218;5.158;2022-09-13T04:19:53;37.75;;;22.60;;
69754;SDS011;57023;52.218;5.158;2022-09-13T04:22:19;34.88;;;23.52;;
69754;SDS011;57023;52.218;5.158;2022-09-13T04:24:44;37.55;;;24.17;;
69754;SDS011;57023;52.218;5.158;2022-09-13T04:27:10;39.03;;;24.55;;
69754;SDS011;57023;52.218;5.158;2022-09-13T04:29:36;37.57;;;23.43;;
69754;SDS011;57023;52.218;5.158;2022-09-13T04:32:01;37.15;;;24.35;;
69754;SDS011;57023;52.218;5.158;2022-09-13T04:34:27;38.92;;;23.88;;
69754;SDS011;57023;52.218;5.158;2022-09-13T04:36:52;37.65;;;23.70;;
69754;SDS011;57023;52.218;5.158;2022-09-13T04:39:18;37.10;;;23.30;;
69754;SDS011;57023;52.218;5.158;2022-09-13T04:41:44;37.33;;;24.50;;
69754;SDS011;57023;52.218;5.158;2022-09-13T04:44:11;34.35;;;23.75;;
69754;SDS011;57023;52.218;5.158;2022-09-13T04:46:36;46.28;;;26.02;;
69754;SDS011;57023;52.218;5.158;2022-09-13T04:49:02;39.25;;;24.60;;
69754;SDS011;57023;52.218;5.158;2022-09-13T04:51:27;36.70;;;24.67;;
69754;SDS011;57023;52.218;5.158;2022-09-13T04:53:53;39.80;;;24.55;;
69754;SDS011;57023;52.218;5.158;2022-09-13T04:56:19;36.43;;;23.73;;
69754;SDS011;57023;52.218;5.158;2022-09-13T04:58:47;36.80;;;24.13;;
69754;SDS011;57023;52.218;5.158;2022-09-13T05:01:12;39.15;;;24.20;;
69754;SDS011;57023;52.218;5.158;2022-09-13T05:03:37;37.15;;;24.65;;
69754;SDS011;57023;52.218;5.158;2022-09-13T05:06:03;39.40;;;24.08;;
69754;SDS011;57023;52.218;5.158;2022-09-13T05:08:30;38.65;;;24.83;;
69754;SDS011;57023;52.218;5.158;2022-09-13T05:10:55;40.38;;;25.55;;
69754;SDS011;57023;52.218;5.158;2022-09-13T05:13:21;41.53;;;27.83;;
69754;SDS011;57023;52.218;5.158;2022-09-13T05:15:46;41.50;;;26.48;;
69754;SDS011;57023;52.218;5.158;2022-09-13T05:18:12;39.75;;;25.05;;
69754;SDS011;57023;52.218;5.158;2022-09-13T05:20:37;41.15;;;25.45;;
69754;SDS011;57023;52.218;5.158;2022-09-13T05:23:02;41.38;;;25.55;;
69754;SDS011;57023;52.218;5.158;2022-09-13T05:25:28;41.33;;;27.17;;
69754;SDS011;57023;52.218;5.158;2022-09-13T05:27:53;44.08;;;26.55;;
69754;SDS011;57023;52.218;5.158;2022-09-13T05:30:19;44.80;;;27.95;;
69754;SDS011;57023;52.218;5.158;2022-09-13T05:32:44;46.03;;;29.45;;
69754;SDS011;57023;52.218;5.158;2022-09-13T05:35:10;46.35;;;29.85;;
69754;SDS011;57023;52.218;5.158;2022-09-13T05:37:35;49.53;;;29.77;;
69754;SDS011;57023;52.218;5.158;2022-09-13T05:40:01;45.40;;;27.95;;
69754;SDS011;57023;52.218;5.158;2022-09-13T05:42:27;52.00;;;30.20;;
69754;SDS011;57023;52.218;5.158;2022-09-13T05:44:52;48.70;;;28.90;;
69754;SDS011;57023;52.218;5.158;2022-09-13T05:47:19;47.03;;;29.23;;
69754;SDS011;57023;52.218;5.158;2022-09-13T05:49:45;48.53;;;30.77;;
69754;SDS011;57023;52.218;5.158;2022-09-13T05:52:10;50.25;;;30.75;;
69754;SDS011;57023;52.218;5.158;2022-09-13T05:54:35;50.25;;;30.60;;
69754;SDS011;57023;52.218;5.158;2022-09-13T05:57:01;49.72;;;31.08;;
69754;SDS011;57023;52.218;5.158;2022-09-13T05:59:27;52.97;;;32.38;;
69754;SDS011;57023;52.218;5.158;2022-09-13T06:01:52;52.50;;;31.35;;
69754;SDS011;57023;52.218;5.158;2022-09-13T06:04:18;48.67;;;30.88;;
69754;SDS011;57023;52.218;5.158;2022-09-13T06:06:43;48.05;;;30.30;;
69754;SDS011;57023;52.218;5.158;2022-09-13T06:09:09;51.15;;;32.15;;
69754;SDS011;57023;52.218;5.158;2022-09-13T06:11:35;49.78;;;31.77;;
69754;SDS011;57023;52.218;5.158;2022-09-13T06:14:00;51.10;;;30.90;;
69754;SDS011;57023;52.218;5.158;2022-09-13T06:16:26;50.25;;;31.95;;
69754;SDS011;57023;52.218;5.158;2022-09-13T06:18:51;48.47;;;31.08;;
69754;SDS011;57023;52.218;5.158;2022-09-13T06:21:17;53.78;;;31.10;;
69754;SDS011;57023;52.218;5.158;2022-09-13T06:23:45;49.38;;;31.88;;
69754;SDS011;57023;52.218;5.158;2022-09-13T06:26:12;47.42;;;32.08;;
69754;SDS011;57023;52.218;5.158;2022-09-13T06:28:38;47.55;;;29.55;;
69754;SDS011;57023;52.218;5.158;2022-09-13T06:31:05;45.90;;;30.35;;
69754;SDS011;57023;52.218;5.158;2022-09-13T06:33:32;47.33;;;29.58;;
69754;SDS011;57023;52.218;5.158;2022-09-13T06:35:59;46.47;;;30.33;;
69754;SDS011;57023;52.218;5.158;2022-09-13T06:38:25;43.53;;;26.60;;
69754;SDS011;57023;52.218;5.158;2022-09-13T06:41:00;39.45;;;25.80;;
69754;SDS011;57023;52.218;5.158;2022-09-13T06:43:30;39.50;;;25.88;;
69754;SDS011;57023;52.218;5.158;2022-09-13T06:46:00;36.67;;;24.70;;
69754;SDS011;57023;52.218;5.158;2022-09-13T06:48:30;37.60;;;24.80;;
69754;SDS011;57023;52.218;5.158;2022-09-13T06:50:57;36.95;;;24.20;;
69754;SDS011;57023;52.218;5.158;2022-09-13T06:53:26;35.40;;;23.85;;
69754;SDS011;57023;52.218;5.158;2022-09-13T06:56:03;33.88;;;23.58;;
69754;SDS011;57023;52.218;5.158;2022-09-13T06:58:34;31.30;;;21.00;;
69754;SDS011;57023;52.218;5.158;2022-09-13T07:01:16;31.15;;;21.30;;
69754;SDS011;57023;52.218;5.158;2022-09-13T07:03:44;30.92;;;19.42;;
69754;SDS011;57023;52.218;5.158;2022-09-13T07:06:14;28.63;;;16.95;;
69754;SDS011;57023;52.218;5.158;2022-09-13T07:08:43;23.92;;;15.00;;
69754;SDS011;57023;52.218;5.158;2022-09-13T07:11:09;26.03;;;15.43;;
69754;SDS011;57023;52.218;5.158;2022-09-13T07:13:36;25.50;;;16.25;;
69754;SDS011;57023;52.218;5.158;2022-09-13T07:16:02;23.58;;;14.30;;
69754;SDS011;57023;52.218;5.158;2022-09-13T07:18:29;24.15;;;13.18;;
69754;SDS011;57023;52.218;5.158;2022-09-13T07:21:05;21.50;;;12.27;;
69754;SDS011;57023;52.218;5.158;2022-09-13T07:23:32;19.33;;;11.85;;
69754;SDS011;57023;52.218;5.158;2022-09-13T07:25:58;18.25;;;11.45;;
69754;SDS011;57023;52.218;5.158;2022-09-13T07:28:28;16.58;;;9.85;;
69754;SDS011;57023;52.218;5.158;2022-09-13T07:30:55;17.63;;;9.70;;
69754;SDS011;57023;52.218;5.158;2022-09-13T07:33:22;18.20;;;9.98;;
69754;SDS011;57023;52.218;5.158;2022-09-13T07:35:53;17.33;;;9.20;;
69754;SDS011;57023;52.218;5.158;2022-09-13T07:38:19;14.30;;;7.53;;
69754;SDS011;57023;52.218;5.158;2022-09-13T07:40:51;14.00;;;6.53;;
69754;SDS011;57023;52.218;5.158;2022-09-13T07:43:37;11.93;;;5.80;;
69754;SDS011;57023;52.218;5.158;2022-09-13T07:48:30;10.45;;;5.68;;
69754;SDS011;57023;52.218;5.158;2022-09-13T07:50:58;10.43;;;4.85;;
69754;SDS011;57023;52.218;5.158;2022-09-13T07:53:25;8.80;;;4.10;;
69754;SDS011;57023;52.218;5.158;2022-09-13T07:55:50;7.30;;;4.38;;
69754;SDS011;57023;52.218;5.158;2022-09-13T07:58:15;7.50;;;4.10;;
69754;SDS011;57023;52.218;5.158;2022-09-13T08:00:41;7.78;;;3.85;;
69754;SDS011;57023;52.218;5.158;2022-09-13T08:03:06;8.57;;;3.80;;
69754;SDS011;57023;52.218;5.158;2022-09-13T08:05:37;7.53;;;3.90;;
69754;SDS011;57023;52.218;5.158;2022-09-13T08:08:03;11.32;;;3.85;;
69754;SDS011;57023;52.218;5.158;2022-09-13T08:10:28;9.70;;;3.83;;
69754;SDS011;57023;52.218;5.158;2022-09-13T08:12:53;9.98;;;3.58;;
69754;SDS011;57023;52.218;5.158;2022-09-13T08:15:19;8.15;;;3.50;;
69754;SDS011;57023;52.218;5.158;2022-09-13T08:17:44;6.28;;;3.20;;
69754;SDS011;57023;52.218;5.158;2022-09-13T08:20:09;6.57;;;3.40;;
69754;SDS011;57023;52.218;5.158;2022-09-13T08:22:35;6.20;;;3.17;;
69754;SDS011;57023;52.218;5.158;2022-09-13T08:25:00;7.47;;;3.28;;
69754;SDS011;57023;52.218;5.158;2022-09-13T08:27:26;5.78;;;3.00;;
69754;SDS011;57023;52.218;5.158;2022-09-13T08:29:53;6.50;;;2.80;;
69754;SDS011;57023;52.218;5.158;2022-09-13T08:32:19;6.57;;;3.00;;
69754;SDS011;57023;52.218;5.158;2022-09-13T08:37:11;7.20;;;3.07;;
69754;SDS011;57023;52.218;5.158;2022-09-13T08:39:36;4.85;;;2.70;;
69754;SDS011;57023;52.218;5.158;2022-09-13T08:42:05;8.10;;;3.00;;
69754;SDS011;57023;52.218;5.158;2022-09-13T08:44:35;6.38;;;2.92;;
69754;SDS011;57023;52.218;5.158;2022-09-13T08:47:23;6.82;;;2.83;;
69754;SDS011;57023;52.218;5.158;2022-09-13T08:49:58;6.05;;;2.70;;
69754;SDS011;57023;52.218;5.158;2022-09-13T08:52:32;8.80;;;3.00;;
69754;SDS011;57023;52.218;5.158;2022-09-13T08:55:01;5.53;;;2.50;;
69754;SDS011;57023;52.218;5.158;2022-09-13T09:00:17;4.93;;;2.72;;
69754;SDS011;57023;52.218;5.158;2022-09-13T09:02:58;4.90;;;2.45;;
69754;SDS011;57023;52.218;5.158;2022-09-13T09:05:30;6.53;;;2.90;;
69754;SDS011;57023;52.218;5.158;2022-09-13T09:10:31;5.22;;;2.58;;
69754;SDS011;57023;52.218;5.158;2022-09-13T09:13:01;7.18;;;2.70;;
69754;SDS011;57023;52.218;5.158;2022-09-13T09:15:33;5.45;;;2.80;;
69754;SDS011;57023;52.218;5.158;2022-09-13T09:18:17;6.85;;;3.00;;
69754;SDS011;57023;52.218;5.158;2022-09-13T09:20:46;6.97;;;2.95;;
69754;SDS011;57023;52.218;5.158;2022-09-13T09:23:21;6.30;;;2.70;;
69754;SDS011;57023;52.218;5.158;2022-09-13T09:25:56;9.52;;;3.20;;
69754;SDS011;57023;52.218;5.158;2022-09-13T09:28:40;5.97;;;2.67;;
69754;SDS011;57023;52.218;5.158;2022-09-13T09:33:41;7.57;;;3.25;;
69754;SDS011;57023;52.218;5.158;2022-09-13T09:36:23;6.90;;;2.60;;
69754;SDS011;57023;52.218;5.158;2022-09-13T09:38:56;6.45;;;3.10;;
69754;SDS011;57023;52.218;5.158;2022-09-13T09:46:40;5.60;;;2.90;;
69754;SDS011;57023;52.218;5.158;2022-09-13T09:52:28;6.05;;;3.03;;
69754;SDS011;57023;52.218;5.158;2022-09-13T09:54:59;7.18;;;2.92;;
69754;SDS011;57023;52.218;5.158;2022-09-13T09:57:48;7.05;;;3.20;;
69754;SDS011;57023;52.218;5.158;2022-09-13T10:00:36;7.75;;;2.80;;
69754;SDS011;57023;52.218;5.158;2022-09-13T10:03:15;6.47;;;2.78;;
69754;SDS011;57023;52.218;5.158;2022-09-13T10:05:42;7.82;;;3.15;;
69754;SDS011;57023;52.218;5.158;2022-09-13T10:08:10;6.77;;;3.00;;
69754;SDS011;57023;52.218;5.158;2022-09-13T10:10:54;6.55;;;3.05;;
69754;SDS011;57023;52.218;5.158;2022-09-13T10:13:21;6.82;;;3.40;;
69754;SDS011;57023;52.218;5.158;2022-09-13T10:18:28;5.82;;;3.10;;
69754;SDS011;57023;52.218;5.158;2022-09-13T10:21:01;6.75;;;3.20;;
69754;SDS011;57023;52.218;5.158;2022-09-13T10:23:34;8.38;;;3.60;;
69754;SDS011;57023;52.218;5.158;2022-09-13T10:28:31;6.03;;;2.78;;
69754;SDS011;57023;52.218;5.158;2022-09-13T10:31:06;5.60;;;3.03;;
69754;SDS011;57023;52.218;5.158;2022-09-13T10:33:35;6.18;;;3.10;;
69754;SDS011;57023;52.218;5.158;2022-09-13T10:36:04;7.07;;;3.10;;
69754;SDS011;57023;52.218;5.158;2022-09-13T10:38:33;7.25;;;3.00;;
69754;SDS011;57023;52.218;5.158;2022-09-13T10:41:01;6.80;;;2.83;;
69754;SDS011;57023;52.218;5.158;2022-09-13T10:43:29;6.68;;;3.30;;
69754;SDS011;57023;52.218;5.158;2022-09-13T10:45:55;8.48;;;3.13;;
69754;SDS011;57023;52.218;5.158;2022-09-13T10:48:21;5.80;;;3.08;;
69754;SDS011;57023;52.218;5.158;2022-09-13T10:55:56;5.82;;;2.90;;
69754;SDS011;57023;52.218;5.158;2022-09-13T10:58:21;7.37;;;3.07;;
69754;SDS011;57023;52.218;5.158;2022-09-13T11:01:00;6.97;;;2.93;;
69754;SDS011;57023;52.218;5.158;2022-09-13T11:09:36;5.85;;;2.80;;
69754;SDS011;57023;52.218;5.158;2022-09-13T11:20:42;8.68;;;3.00;;
69754;SDS011;57023;52.218;5.158;2022-09-13T11:23:17;6.03;;;3.00;;
69754;SDS011;57023;52.218;5.158;2022-09-13T11:26:16;5.82;;;2.80;;
69754;SDS011;57023;52.218;5.158;2022-09-13T11:31:42;6.18;;;2.85;;
69754;SDS011;57023;52.218;5.158;2022-09-13T11:34:35;5.43;;;2.45;;
69754;SDS011;57023;52.218;5.158;2022-09-13T11:37:48;4.78;;;2.65;;
69754;SDS011;57023;52.218;5.158;2022-09-13T11:45:27;6.30;;;2.50;;
69754;SDS011;57023;52.218;5.158;2022-09-13T11:47:56;6.40;;;2.50;;
69754;SDS011;57023;52.218;5.158;2022-09-13T11:50:33;5.97;;;2.50;;
69754;SDS011;57023;52.218;5.158;2022-09-13T11:53:32;6.15;;;2.67;;
69754;SDS011;57023;52.218;5.158;2022-09-13T11:56:10;5.75;;;2.47;;
69754;SDS011;57023;52.218;5.158;2022-09-13T11:58:44;5.95;;;2.47;;
69754;SDS011;57023;52.218;5.158;2022-09-13T12:01:15;4.93;;;2.58;;
69754;SDS011;57023;52.218;5.158;2022-09-13T12:03:50;7.35;;;2.45;;
69754;SDS011;57023;52.218;5.158;2022-09-13T12:08:55;6.18;;;2.40;;
69754;SDS011;57023;52.218;5.158;2022-09-13T12:11:25;6.38;;;2.40;;
69754;SDS011;57023;52.218;5.158;2022-09-13T12:13:55;4.32;;;2.13;;
69754;SDS011;57023;52.218;5.158;2022-09-13T12:16:24;6.32;;;2.28;;
69754;SDS011;57023;52.218;5.158;2022-09-13T12:18:53;4.93;;;2.05;;
69754;SDS011;57023;52.218;5.158;2022-09-13T12:21:25;5.75;;;2.40;;
69754;SDS011;57023;52.218;5.158;2022-09-13T12:29:39;5.72;;;2.13;;
69754;SDS011;57023;52.218;5.158;2022-09-13T12:32:13;6.93;;;2.25;;
69754;SDS011;57023;52.218;5.158;2022-09-13T12:35:24;5.68;;;2.28;;
69754;SDS011;57023;52.218;5.158;2022-09-13T12:51:07;5.10;;;2.10;;
69754;SDS011;57023;52.218;5.158;2022-09-13T12:56:32;6.20;;;2.08;;
69754;SDS011;57023;52.218;5.158;2022-09-13T13:01:44;7.53;;;1.92;;
69754;SDS011;57023;52.218;5.158;2022-09-13T13:04:22;6.97;;;2.20;;
69754;SDS011;57023;52.218;5.158;2022-09-13T13:06:51;5.00;;;1.90;;
69754;SDS011;57023;52.218;5.158;2022-09-13T13:12:09;3.85;;;1.75;;
69754;SDS011;57023;52.218;5.158;2022-09-13T13:34:24;7.22;;;2.08;;
69754;SDS011;57023;52.218;5.158;2022-09-13T13:42:30;4.90;;;1.90;;
69754;SDS011;57023;52.218;5.158;2022-09-13T13:50:12;6.60;;;1.83;;
69754;SDS011;57023;52.218;5.158;2022-09-13T13:52:50;7.45;;;2.20;;
69754;SDS011;57023;52.218;5.158;2022-09-13T13:55:25;4.93;;;1.88;;
69754;SDS011;57023;52.218;5.158;2022-09-13T13:57:58;7.05;;;1.92;;
69754;SDS011;57023;52.218;5.158;2022-09-13T14:00:26;7.43;;;2.20;;
69754;SDS011;57023;52.218;5.158;2022-09-13T14:11:13;4.72;;;1.80;;
69754;SDS011;57023;52.218;5.158;2022-09-13T14:16:37;6.50;;;2.03;;
69754;SDS011;57023;52.218;5.158;2022-09-13T14:19:17;6.53;;;2.00;;
69754;SDS011;57023;52.218;5.158;2022-09-13T14:24:42;6.97;;;2.00;;
69754;SDS011;57023;52.218;5.158;2022-09-13T14:27:14;4.30;;;1.95;;
69754;SDS011;57023;52.218;5.158;2022-09-13T14:30:00;6.32;;;1.80;;
69754;SDS011;57023;52.218;5.158;2022-09-13T14:32:29;6.57;;;2.10;;
69754;SDS011;57023;52.218;5.158;2022-09-13T14:34:58;9.65;;;2.38;;
69754;SDS011;57023;52.218;5.158;2022-09-13T14:37:29;6.03;;;2.10;;
69754;SDS011;57023;52.218;5.158;2022-09-13T14:42:44;6.25;;;1.92;;
69754;SDS011;57023;52.218;5.158;2022-09-13T14:45:15;4.30;;;2.03;;
69754;SDS011;57023;52.218;5.158;2022-09-13T14:47:48;8.05;;;1.88;;
69754;SDS011;57023;52.218;5.158;2022-09-13T14:50:23;4.32;;;1.70;;
69754;SDS011;57023;52.218;5.158;2022-09-13T14:52:52;5.53;;;2.00;;
69754;SDS011;57023;52.218;5.158;2022-09-13T14:55:21;6.32;;;1.70;;
69754;SDS011;57023;52.218;5.158;2022-09-13T14:57:56;7.60;;;2.03;;
69754;SDS011;57023;52.218;5.158;2022-09-13T15:00:27;5.75;;;1.75;;
69754;SDS011;57023;52.218;5.158;2022-09-13T15:02:53;7.17;;;2.07;;
69754;SDS011;57023;52.218;5.158;2022-09-13T15:05:28;5.25;;;1.85;;
69754;SDS011;57023;52.218;5.158;2022-09-13T15:07:55;7.95;;;2.20;;
69754;SDS011;57023;52.218;5.158;2022-09-13T15:10:23;4.87;;;1.80;;
69754;SDS011;57023;52.218;5.158;2022-09-13T15:12:54;5.10;;;1.83;;
69754;SDS011;57023;52.218;5.158;2022-09-13T15:15:41;7.70;;;2.10;;
69754;SDS011;57023;52.218;5.158;2022-09-13T15:20:51;5.18;;;1.83;;
69754;SDS011;57023;52.218;5.158;2022-09-13T15:23:19;6.35;;;2.30;;
69754;SDS011;57023;52.218;5.158;2022-09-13T15:25:55;5.85;;;2.08;;
69754;SDS011;57023;52.218;5.158;2022-09-13T15:31:09;7.90;;;2.03;;
69754;SDS011;57023;52.218;5.158;2022-09-13T15:33:36;5.22;;;2.00;;
69754;SDS011;57023;52.218;5.158;2022-09-13T15:38:55;6.88;;;1.90;;
69754;SDS011;57023;52.218;5.158;2022-09-13T15:41:26;5.13;;;1.98;;
69754;SDS011;57023;52.218;5.158;2022-09-13T15:43:53;6.82;;;2.10;;
69754;SDS011;57023;52.218;5.158;2022-09-13T15:46:18;6.30;;;1.93;;
69754;SDS011;57023;52.218;5.158;2022-09-13T15:48:48;6.63;;;1.83;;
69754;SDS011;57023;52.218;5.158;2022-09-13T15:51:15;6.30;;;2.00;;
69754;SDS011;57023;52.218;5.158;2022-09-13T15:53:42;6.13;;;2.03;;
69754;SDS011;57023;52.218;5.158;2022-09-13T15:56:09;7.47;;;2.45;;
69754;SDS011;57023;52.218;5.158;2022-09-13T15:58:37;5.85;;;1.80;;
69754;SDS011;57023;52.218;5.158;2022-09-13T16:01:03;5.87;;;1.90;;
69754;SDS011;57023;52.218;5.158;2022-09-13T16:03:28;6.10;;;1.90;;
69754;SDS011;57023;52.218;5.158;2022-09-13T16:05:54;6.63;;;2.30;;
69754;SDS011;57023;52.218;5.158;2022-09-13T16:08:21;7.05;;;2.60;;
69754;SDS011;57023;52.218;5.158;2022-09-13T16:13:12;6.13;;;2.20;;
69754;SDS011;57023;52.218;5.158;2022-09-13T16:15:38;6.33;;;2.20;;
69754;SDS011;57023;52.218;5.158;2022-09-13T16:18:03;5.97;;;2.20;;
69754;SDS011;57023;52.218;5.158;2022-09-13T16:20:29;6.70;;;2.13;;
69754;SDS011;57023;52.218;5.158;2022-09-13T16:22:54;4.90;;;1.87;;
69754;SDS011;57023;52.218;5.158;2022-09-13T16:25:19;6.73;;;2.00;;
69754;SDS011;57023;52.218;5.158;2022-09-13T16:30:12;5.87;;;2.00;;
69754;SDS011;57023;52.218;5.158;2022-09-13T16:32:39;4.78;;;2.10;;
69754;SDS011;57023;52.218;5.158;2022-09-13T16:35:05;6.47;;;2.50;;
69754;SDS011;57023;52.218;5.158;2022-09-13T16:37:31;4.93;;;2.03;;
69754;SDS011;57023;52.218;5.158;2022-09-13T16:39:56;5.30;;;2.10;;
69754;SDS011;57023;52.218;5.158;2022-09-13T16:42:22;6.97;;;2.23;;
69754;SDS011;57023;52.218;5.158;2022-09-13T16:44:48;5.97;;;2.20;;
69754;SDS011;57023;52.218;5.158;2022-09-13T16:47:14;6.17;;;2.10;;
69754;SDS011;57023;52.218;5.158;2022-09-13T16:49:39;4.70;;;2.17;;
69754;SDS011;57023;52.218;5.158;2022-09-13T16:52:05;5.73;;;2.10;;
69754;SDS011;57023;52.218;5.158;2022-09-13T16:54:30;7.53;;;2.20;;
69754;SDS011;57023;52.218;5.158;2022-09-13T16:56:58;8.95;;;2.30;;
69754;SDS011;57023;52.218;5.158;2022-09-13T16:59:23;7.83;;;2.40;;
69754;SDS011;57023;52.218;5.158;2022-09-13T17:01:50;7.18;;;2.60;;
69754;SDS011;57023;52.218;5.158;2022-09-13T17:04:16;8.52;;;2.22;;
69754;SDS011;57023;52.218;5.158;2022-09-13T17:06:42;9.93;;;2.50;;
69754;SDS011;57023;52.218;5.158;2022-09-13T17:09:08;7.57;;;2.27;;
69754;SDS011;57023;52.218;5.158;2022-09-13T17:11:35;6.97;;;2.07;;
69754;SDS011;57023;52.218;5.158;2022-09-13T17:14:03;6.97;;;2.17;;
69754;SDS011;57023;52.218;5.158;2022-09-13T17:16:31;12.13;;;2.50;;
69754;SDS011;57023;52.218;5.158;2022-09-13T17:19:06;7.85;;;2.33;;
69754;SDS011;57023;52.218;5.158;2022-09-13T17:21:33;7.28;;;2.17;;
69754;SDS011;57023;52.218;5.158;2022-09-13T17:23:59;4.83;;;2.10;;
69754;SDS011;57023;52.218;5.158;2022-09-13T17:26:25;5.73;;;2.00;;
69754;SDS011;57023;52.218;5.158;2022-09-13T17:28:51;5.70;;;2.00;;
69754;SDS011;57023;52.218;5.158;2022-09-13T17:31:17;7.07;;;2.20;;
69754;SDS011;57023;52.218;5.158;2022-09-13T17:33:43;8.37;;;2.47;;
69754;SDS011;57023;52.218;5.158;2022-09-13T17:36:09;6.73;;;2.17;;
69754;SDS011;57023;52.218;5.158;2022-09-13T17:38:36;6.95;;;2.10;;
69754;SDS011;57023;52.218;5.158;2022-09-13T17:41:06;5.93;;;2.20;;
69754;SDS011;57023;52.218;5.158;2022-09-13T17:43:33;8.15;;;2.05;;
69754;SDS011;57023;52.218;5.158;2022-09-13T17:46:06;8.70;;;2.40;;
69754;SDS011;57023;52.218;5.158;2022-09-13T17:48:33;6.85;;;2.45;;
69754;SDS011;57023;52.218;5.158;2022-09-13T17:51:00;6.60;;;2.20;;
69754;SDS011;57023;52.218;5.158;2022-09-13T17:53:29;8.13;;;2.40;;
69754;SDS011;57023;52.218;5.158;2022-09-13T17:55:55;6.83;;;2.10;;
69754;SDS011;57023;52.218;5.158;2022-09-13T17:58:24;9.52;;;2.70;;
69754;SDS011;57023;52.218;5.158;2022-09-13T18:00:58;7.68;;;2.40;;
69754;SDS011;57023;52.218;5.158;2022-09-13T18:03:25;9.52;;;2.45;;
69754;SDS011;57023;52.218;5.158;2022-09-13T18:05:53;8.65;;;2.67;;
69754;SDS011;57023;52.218;5.158;2022-09-13T18:08:20;9.70;;;2.30;;